createdAt,value
2023-01-06T00:03:50.453Z,8.3
2023-01-06T00:08:52.562Z,8.3
2023-01-06T00:13:54.851Z,8.2
2023-01-06T00:18:57.085Z,8.2
2023-01-06T00:23:59.284Z,8.2
2023-01-06T00:29:01.764Z,8.2
2023-01-06T00:34:03.909Z,8.4
2023-01-06T00:39:06.182Z,8.5
2023-01-06T00:44:08.485Z,8.6
2023-01-06T00:49:11.124Z,8.5
2023-01-06T00:54:13.315Z,8.5
2023-01-06T00:59:15.498Z,8.6
2023-01-06T01:04:17.542Z,8.7
2023-01-06T01:09:19.781Z,8.6
2023-01-06T01:14:42.092Z,8.5
2023-01-06T01:19:44.162Z,8.3
2023-01-06T01:24:46.842Z,8.1
2023-01-06T01:29:50.148Z,8.1
2023-01-06T01:34:52.760Z,8
2023-01-06T01:39:55.076Z,8
2023-01-06T01:44:57.379Z,8
2023-01-06T01:49:59.888Z,7.9
2023-01-06T01:55:04.454Z,7.8
2023-01-06T02:00:06.680Z,7.7
2023-01-06T02:05:09.073Z,7.8
2023-01-06T02:15:12.733Z,7.7
2023-01-06T02:20:15.068Z,7.7
2023-01-06T02:25:18.303Z,7.9
2023-01-06T02:30:20.397Z,7.8
2023-01-06T02:35:22.758Z,7.9
2023-01-06T02:40:25.017Z,7.9
2023-01-06T02:45:27.286Z,7.9
2023-01-06T02:50:29.465Z,7.9
2023-01-06T02:55:31.707Z,7.9
2023-01-06T03:00:34.093Z,7.9
2023-01-06T03:05:36.528Z,7.8
2023-01-06T03:10:38.625Z,7.8
2023-01-06T03:15:40.850Z,7.7
2023-01-06T03:20:43.124Z,7.7
2023-01-06T03:25:45.366Z,7.7
2023-01-06T03:30:48.213Z,7.7
2023-01-06T03:35:50.424Z,7.7
2023-01-06T03:40:52.566Z,7.7
2023-01-06T03:45:54.752Z,7.7
2023-01-06T03:50:57.144Z,7.7
2023-01-06T03:55:59.642Z,7.7
2023-01-06T04:01:02.293Z,7.6
2023-01-06T04:06:04.872Z,7.6
2023-01-06T04:11:07.194Z,7.6
2023-01-06T04:16:09.465Z,7.5
2023-01-06T04:21:11.671Z,7.6
2023-01-06T04:26:14.794Z,7.6
2023-01-06T04:31:16.927Z,7.6
2023-01-06T04:36:19.127Z,7.6
2023-01-06T04:41:21.376Z,7.6
2023-01-06T04:46:23.561Z,7.6
2023-01-06T04:51:25.680Z,7.6
2023-01-06T04:56:28.810Z,7.5
2023-01-06T05:01:31.804Z,7.4
2023-01-06T05:06:34.442Z,7.4
2023-01-06T05:11:36.682Z,7.3
2023-01-06T05:16:38.948Z,7.3
2023-01-06T05:21:41.370Z,7.3
2023-01-06T05:26:43.568Z,7.3
2023-01-06T05:31:45.933Z,7.3
2023-01-06T05:36:50.000Z,7.3
2023-01-06T05:41:52.187Z,7.3
2023-01-06T05:46:56.697Z,7.3
2023-01-06T05:51:58.753Z,7.3
2023-01-06T05:57:01.168Z,7.2
2023-01-06T06:02:03.837Z,7.2
2023-01-06T06:07:06.410Z,7.3
2023-01-06T06:12:09.173Z,7.3
2023-01-06T06:17:11.276Z,7.2
2023-01-06T06:22:13.584Z,7.3
2023-01-06T06:27:18.447Z,7.3
2023-01-06T06:32:20.629Z,7.3
2023-01-06T06:37:22.861Z,7.4
2023-01-06T06:42:25.005Z,7.4
2023-01-06T06:47:27.151Z,7.5
2023-01-06T06:52:29.284Z,7.6
2023-01-06T06:57:31.790Z,7.8
2023-01-06T07:02:33.859Z,8.7
2023-01-06T07:07:36.299Z,9.3
2023-01-06T07:12:38.607Z,11
2023-01-06T07:17:40.530Z,13.2
2023-01-06T07:22:42.578Z,14.9
2023-01-06T07:27:44.651Z,16.8
2023-01-06T07:32:46.639Z,17.6
2023-01-06T07:37:48.790Z,18.4
2023-01-06T07:42:50.931Z,18.6
2023-01-06T07:47:52.976Z,20
2023-01-06T07:57:56.384Z,20.7
2023-01-06T08:03:00.923Z,22.1
2023-01-06T08:08:03.059Z,22
2023-01-06T08:13:05.309Z,23.3
2023-01-06T08:23:08.320Z,22.5
2023-01-06T08:28:10.415Z,21.6
2023-01-06T08:33:12.514Z,21.2
2023-01-06T08:38:14.707Z,21.3
2023-01-06T08:43:16.937Z,21.3
2023-01-06T08:48:19.006Z,23.2
2023-01-06T08:53:21.164Z,23.4
2023-01-06T08:58:23.518Z,23
2023-01-06T09:03:25.735Z,25.3
2023-01-06T09:08:29.596Z,25.2
2023-01-06T09:13:34.438Z,25.3
2023-01-06T09:18:39.306Z,25.6
2023-01-06T09:24:02.317Z,27.5
2023-01-06T09:28:44.412Z,27.5
2023-01-06T09:33:49.438Z,26.8
2023-01-06T09:38:51.673Z,25.9
2023-01-06T09:43:54.076Z,26.9
2023-01-06T09:48:56.314Z,23.4
2023-01-06T09:54:01.259Z,17.3
2023-01-06T09:59:03.257Z,17.1
2023-01-06T10:04:05.489Z,15.4
2023-01-06T10:09:07.659Z,14.9
2023-01-06T10:14:10.405Z,14.9
2023-01-06T10:19:12.355Z,14.8
2023-01-06T10:24:55.431Z,15.9
2023-01-06T10:29:17.519Z,16
2023-01-06T10:39:25.795Z,17.6
2023-01-06T10:44:28.345Z,17.9
2023-01-06T10:49:30.771Z,17.8
2023-01-06T10:59:34.387Z,20.9
2023-01-06T11:04:36.448Z,20.7
2023-01-06T11:09:38.996Z,20.4
2023-01-06T11:14:43.783Z,19.6
2023-01-06T11:19:45.717Z,19.6
2023-01-06T11:24:47.708Z,23.3
2023-01-06T11:29:49.811Z,26.2
2023-01-06T11:34:51.952Z,25.2
2023-01-06T11:40:12.880Z,26
2023-01-06T11:44:55.002Z,26.1
2023-01-06T11:49:57.062Z,25.6
2023-01-06T11:54:59.485Z,24.4
2023-01-06T12:00:01.545Z,24.4
2023-01-06T12:05:03.638Z,24.1
2023-01-06T12:10:05.801Z,24.7
2023-01-06T12:15:07.913Z,24.9
2023-01-06T12:20:13.504Z,24.6
2023-01-06T12:25:15.984Z,24.6
2023-01-06T12:30:18.059Z,24.7
2023-01-06T12:35:21.101Z,24.5
2023-01-06T12:40:23.194Z,24.4
2023-01-06T12:45:25.576Z,24.8
2023-01-06T12:50:27.570Z,24
2023-01-06T12:55:29.717Z,23.7
2023-01-06T13:00:31.736Z,23.2
2023-01-06T13:05:33.890Z,23.4
2023-01-06T13:10:36.187Z,23.1
2023-01-06T13:15:38.134Z,23.5
2023-01-06T13:20:40.291Z,22.1
2023-01-06T13:25:42.382Z,21
2023-01-06T13:30:55.906Z,19.9
2023-01-06T13:35:47.979Z,19.7
2023-01-06T13:40:50.341Z,19.3
2023-01-06T13:45:52.530Z,17.9
2023-01-06T13:50:54.944Z,16.6
2023-01-06T13:55:56.987Z,14.8
2023-01-06T14:00:59.052Z,13.8
2023-01-06T14:06:01.236Z,13.5
2023-01-06T14:11:03.413Z,12.7
2023-01-06T14:16:06.039Z,12.2
2023-01-06T14:21:08.492Z,12.1
2023-01-06T14:27:47.189Z,11.9
2023-01-06T14:31:19.860Z,11.7
2023-01-06T14:36:22.671Z,11.7
2023-01-06T14:41:25.263Z,11.2
2023-01-06T14:46:27.944Z,11.3
2023-01-06T14:51:30.356Z,11.2
2023-01-06T14:56:33.081Z,10.8
2023-01-06T15:01:36.113Z,10.8
2023-01-06T15:06:38.574Z,10.7
2023-01-06T15:11:40.741Z,10.6
2023-01-06T15:16:42.806Z,10.5
2023-01-06T15:21:45.011Z,10.2
2023-01-06T15:26:47.136Z,10.1
2023-01-06T15:31:49.466Z,10
2023-01-06T15:36:52.103Z,9.8
2023-01-06T15:41:54.132Z,9.7
2023-01-06T15:46:56.129Z,9.7
2023-01-06T15:51:59.123Z,9.7
2023-01-06T15:57:18.388Z,9.7
2023-01-06T16:02:10.968Z,9.6
2023-01-06T16:07:13.687Z,9.5
2023-01-06T16:12:16.478Z,9.4
2023-01-06T16:17:18.539Z,9.4
2023-01-06T16:22:21.162Z,9.2
2023-01-06T16:27:23.434Z,9.1
2023-01-06T16:32:25.656Z,9
2023-01-06T16:37:27.723Z,8.9
2023-01-06T16:42:29.690Z,8.7
2023-01-06T16:47:31.806Z,8.7
2023-01-06T16:52:36.944Z,8.6
2023-01-06T16:57:39.230Z,8.5
2023-01-06T17:02:41.377Z,8.5
2023-01-06T17:07:43.408Z,8.5
2023-01-06T17:12:45.496Z,8.4
2023-01-06T17:22:48.022Z,8.1
2023-01-06T17:27:50.063Z,8.1
2023-01-06T17:32:52.149Z,8.1
2023-01-06T17:37:54.194Z,8.1
2023-01-06T17:42:56.245Z,8.1
2023-01-06T17:47:58.344Z,8
2023-01-06T17:53:00.469Z,8.1
2023-01-06T17:58:02.399Z,8.1
2023-01-06T18:03:04.449Z,8.1
2023-01-06T18:08:06.493Z,8.2
2023-01-06T18:13:08.614Z,8.2
2023-01-06T18:18:10.708Z,8.2
2023-01-06T18:23:13.387Z,8.2
2023-01-06T18:28:15.630Z,8.2
2023-01-06T18:33:17.697Z,8.3
2023-01-06T18:38:19.812Z,8.3
2023-01-06T18:43:21.908Z,8.4
2023-01-06T18:48:23.955Z,8.3
2023-01-06T18:58:26.626Z,8.3
2023-01-06T19:03:29.170Z,8.3
2023-01-06T19:08:31.263Z,8.4
2023-01-06T19:13:33.615Z,8.4
2023-01-06T19:18:35.694Z,8.5
2023-01-06T19:23:37.683Z,8.5
2023-01-06T19:28:40.220Z,8.6
2023-01-06T19:33:43.076Z,8.5
2023-01-06T19:38:45.402Z,8.4
2023-01-06T19:43:48.610Z,8.4
2023-01-06T19:48:50.797Z,8.3
2023-01-06T19:53:52.877Z,8.3
2023-01-06T19:58:55.002Z,8.3
2023-01-06T20:03:57.584Z,8.2
2023-01-06T20:09:00.103Z,8.2
2023-01-06T20:14:02.587Z,8.2
2023-01-06T20:19:04.859Z,8.1
2023-01-06T20:24:07.003Z,8
2023-01-06T20:29:09.133Z,8
2023-01-06T20:34:11.742Z,8
2023-01-06T20:39:13.815Z,8
2023-01-06T20:44:16.817Z,8
2023-01-06T20:49:18.946Z,8
2023-01-06T20:54:21.130Z,8
2023-01-06T20:59:25.899Z,8
2023-01-06T21:04:30.222Z,7.9
2023-01-06T21:09:35.290Z,7.9
2023-01-06T21:14:37.891Z,7.9
2023-01-06T21:19:40.048Z,7.9
2023-01-06T21:24:42.724Z,8
2023-01-06T21:29:45.236Z,8
2023-01-06T21:34:48.307Z,8
2023-01-06T21:39:51.045Z,8
2023-01-06T21:44:53.385Z,8
2023-01-06T21:49:55.848Z,8
2023-01-06T21:54:58.836Z,7.9
2023-01-06T22:00:01.149Z,7.9
2023-01-06T22:05:03.225Z,7.9
2023-01-06T22:10:08.119Z,7.9
2023-01-06T22:15:10.239Z,7.9
2023-01-06T22:20:12.854Z,7.9
2023-01-06T22:25:15.270Z,7.9
2023-01-06T22:30:17.426Z,7.9
2023-01-06T22:35:19.602Z,7.9
2023-01-06T22:40:22.287Z,7.9
2023-01-06T22:45:25.343Z,7.9
2023-01-06T22:50:27.399Z,7.8
2023-01-06T22:55:30.103Z,7.8
2023-01-06T23:00:32.419Z,7.8
2023-01-06T23:05:34.650Z,7.7
2023-01-06T23:10:36.898Z,7.8
2023-01-06T23:15:40.631Z,7.9
2023-01-06T23:20:42.736Z,7.8
2023-01-06T23:25:44.984Z,7.9
2023-01-06T23:30:47.693Z,7.8
2023-01-06T23:35:49.848Z,7.8
2023-01-06T23:40:52.395Z,7.8
2023-01-06T23:45:55.408Z,7.6
2023-01-06T23:50:57.820Z,7.6
2023-01-06T23:56:00.619Z,7.3
